sensor_id;sensor_type;location;lat;lon;timestamp;P1;durP1;ratioP1;P2;durP2;ratioP2
27722;SDS011;15123;-37.794;175.246;2023-08-06T00:02:32;7.50;;;2.28;;
27722;SDS011;15123;-37.794;175.246;2023-08-06T00:05:57;9.43;;;2.85;;
27722;SDS011;15123;-37.794;175.246;2023-08-06T00:09:22;6.35;;;2.50;;
27722;SDS011;15123;-37.794;175.246;2023-08-06T00:12:46;8.13;;;3.90;;
27722;SDS011;15123;-37.794;175.246;2023-08-06T00:16:11;9.25;;;2.90;;
27722;SDS011;15123;-37.794;175.246;2023-08-06T00:19:35;6.70;;;2.40;;
27722;SDS011;15123;-37.794;175.246;2023-08-06T00:23:01;5.53;;;2.17;;
27722;SDS011;15123;-37.794;175.246;2023-08-06T00:26:26;7.80;;;2.38;;
27722;SDS011;15123;-37.794;175.246;2023-08-06T00:29:49;6.68;;;2.20;;
27722;SDS011;15123;-37.794;175.246;2023-08-06T00:33:13;5.90;;;1.95;;
27722;SDS011;15123;-37.794;175.246;2023-08-06T00:36:38;8.13;;;2.00;;
27722;SDS011;15123;-37.794;175.246;2023-08-06T00:40:03;8.02;;;2.30;;
27722;SDS011;15123;-37.794;175.246;2023-08-06T00:43:28;7.93;;;2.47;;
27722;SDS011;15123;-37.794;175.246;2023-08-06T00:46:53;7.38;;;2.22;;
27722;SDS011;15123;-37.794;175.246;2023-08-06T00:50:19;6.65;;;2.05;;
27722;SDS011;15123;-37.794;175.246;2023-08-06T00:53:43;7.63;;;2.28;;
27722;SDS011;15123;-37.794;175.246;2023-08-06T00:57:08;6.10;;;2.03;;
27722;SDS011;15123;-37.794;175.246;2023-08-06T01:00:34;7.20;;;2.05;;
27722;SDS011;15123;-37.794;175.246;2023-08-06T01:03:58;6.50;;;1.90;;
27722;SDS011;15123;-37.794;175.246;2023-08-06T01:07:33;7.63;;;2.40;;
27722;SDS011;15123;-37.794;175.246;2023-08-06T01:15:46;7.82;;;2.20;;
27722;SDS011;15123;-37.794;175.246;2023-08-06T01:19:18;9.02;;;2.20;;
27722;SDS011;15123;-37.794;175.246;2023-08-06T01:22:42;7.75;;;2.40;;
27722;SDS011;15123;-37.794;175.246;2023-08-06T01:26:10;8.10;;;2.45;;
27722;SDS011;15123;-37.794;175.246;2023-08-06T01:29:41;7.47;;;1.92;;
27722;SDS011;15123;-37.794;175.246;2023-08-06T01:33:11;7.53;;;2.10;;
27722;SDS011;15123;-37.794;175.246;2023-08-06T01:36:40;10.20;;;2.08;;
27722;SDS011;15123;-37.794;175.246;2023-08-06T01:40:09;8.30;;;2.50;;
27722;SDS011;15123;-37.794;175.246;2023-08-06T01:43:34;8.88;;;2.28;;
27722;SDS011;15123;-37.794;175.246;2023-08-06T01:47:00;9.35;;;2.58;;
27722;SDS011;15123;-37.794;175.246;2023-08-06T01:50:24;8.90;;;2.22;;
27722;SDS011;15123;-37.794;175.246;2023-08-06T01:53:49;7.18;;;1.80;;
27722;SDS011;15123;-37.794;175.246;2023-08-06T01:57:14;10.38;;;2.22;;
27722;SDS011;15123;-37.794;175.246;2023-08-06T02:00:39;9.95;;;2.47;;
27722;SDS011;15123;-37.794;175.246;2023-08-06T02:04:04;10.15;;;2.38;;
27722;SDS011;15123;-37.794;175.246;2023-08-06T02:07:29;10.82;;;2.67;;
27722;SDS011;15123;-37.794;175.246;2023-08-06T02:10:53;15.32;;;2.85;;
27722;SDS011;15123;-37.794;175.246;2023-08-06T02:14:19;13.68;;;3.03;;
27722;SDS011;15123;-37.794;175.246;2023-08-06T02:17:43;15.80;;;3.75;;
27722;SDS011;15123;-37.794;175.246;2023-08-06T02:21:07;10.50;;;2.83;;
27722;SDS011;15123;-37.794;175.246;2023-08-06T02:24:32;13.02;;;2.90;;
27722;SDS011;15123;-37.794;175.246;2023-08-06T02:27:57;10.30;;;2.60;;
27722;SDS011;15123;-37.794;175.246;2023-08-06T02:31:21;15.40;;;3.55;;
27722;SDS011;15123;-37.794;175.246;2023-08-06T02:34:45;9.77;;;2.75;;
27722;SDS011;15123;-37.794;175.246;2023-08-06T02:38:09;10.63;;;2.08;;
27722;SDS011;15123;-37.794;175.246;2023-08-06T02:41:34;7.90;;;1.88;;
27722;SDS011;15123;-37.794;175.246;2023-08-06T02:44:59;11.57;;;2.50;;
27722;SDS011;15123;-37.794;175.246;2023-08-06T02:48:24;12.27;;;2.42;;
27722;SDS011;15123;-37.794;175.246;2023-08-06T02:51:49;7.97;;;2.30;;
27722;SDS011;15123;-37.794;175.246;2023-08-06T02:55:13;9.25;;;2.53;;
27722;SDS011;15123;-37.794;175.246;2023-08-06T02:58:44;8.18;;;1.90;;
27722;SDS011;15123;-37.794;175.246;2023-08-06T03:02:34;8.25;;;2.03;;
27722;SDS011;15123;-37.794;175.246;2023-08-06T03:06:09;10.45;;;2.67;;
27722;SDS011;15123;-37.794;175.246;2023-08-06T03:09:36;11.73;;;2.13;;
27722;SDS011;15123;-37.794;175.246;2023-08-06T03:13:01;9.63;;;1.90;;
27722;SDS011;15123;-37.794;175.246;2023-08-06T03:16:26;9.43;;;2.20;;
27722;SDS011;15123;-37.794;175.246;2023-08-06T03:19:53;8.68;;;2.08;;
27722;SDS011;15123;-37.794;175.246;2023-08-06T03:23:18;8.82;;;1.88;;
27722;SDS011;15123;-37.794;175.246;2023-08-06T03:26:43;7.70;;;1.70;;
27722;SDS011;15123;-37.794;175.246;2023-08-06T03:30:07;7.78;;;1.73;;
27722;SDS011;15123;-37.794;175.246;2023-08-06T03:33:32;7.93;;;2.10;;
27722;SDS011;15123;-37.794;175.246;2023-08-06T03:37:00;9.30;;;1.85;;
27722;SDS011;15123;-37.794;175.246;2023-08-06T03:40:26;6.88;;;1.65;;
27722;SDS011;15123;-37.794;175.246;2023-08-06T03:43:51;8.48;;;1.80;;
27722;SDS011;15123;-37.794;175.246;2023-08-06T03:47:18;7.47;;;1.70;;
27722;SDS011;15123;-37.794;175.246;2023-08-06T03:50:43;7.55;;;2.20;;
27722;SDS011;15123;-37.794;175.246;2023-08-06T03:54:07;5.95;;;1.70;;
27722;SDS011;15123;-37.794;175.246;2023-08-06T03:57:32;6.95;;;1.20;;
27722;SDS011;15123;-37.794;175.246;2023-08-06T04:01:00;7.60;;;1.55;;
27722;SDS011;15123;-37.794;175.246;2023-08-06T04:04:27;16.52;;;6.57;;
27722;SDS011;15123;-37.794;175.246;2023-08-06T04:07:52;9.35;;;2.47;;
27722;SDS011;15123;-37.794;175.246;2023-08-06T04:11:16;13.25;;;4.82;;
27722;SDS011;15123;-37.794;175.246;2023-08-06T04:14:33;10.05;;;3.08;;
27722;SDS011;15123;-37.794;175.246;2023-08-06T04:18:00;16.45;;;4.80;;
27722;SDS011;15123;-37.794;175.246;2023-08-06T04:21:25;14.65;;;6.18;;
27722;SDS011;15123;-37.794;175.246;2023-08-06T04:24:50;10.10;;;3.00;;
27722;SDS011;15123;-37.794;175.246;2023-08-06T04:28:15;8.95;;;3.10;;
27722;SDS011;15123;-37.794;175.246;2023-08-06T04:31:32;8.20;;;2.03;;
27722;SDS011;15123;-37.794;175.246;2023-08-06T04:34:57;6.38;;;1.98;;
27722;SDS011;15123;-37.794;175.246;2023-08-06T04:38:22;7.38;;;1.65;;
27722;SDS011;15123;-37.794;175.246;2023-08-06T04:41:49;7.38;;;1.45;;
27722;SDS011;15123;-37.794;175.246;2023-08-06T04:45:16;9.35;;;3.80;;
27722;SDS011;15123;-37.794;175.246;2023-08-06T04:48:41;9.73;;;3.30;;
27722;SDS011;15123;-37.794;175.246;2023-08-06T04:52:05;8.73;;;1.92;;
27722;SDS011;15123;-37.794;175.246;2023-08-06T04:55:23;6.95;;;2.20;;
27722;SDS011;15123;-37.794;175.246;2023-08-06T04:58:40;31.60;;;14.32;;
27722;SDS011;15123;-37.794;175.246;2023-08-06T05:02:04;21.58;;;10.73;;
27722;SDS011;15123;-37.794;175.246;2023-08-06T05:05:29;16.98;;;8.63;;
27722;SDS011;15123;-37.794;175.246;2023-08-06T05:08:53;10.35;;;4.90;;
27722;SDS011;15123;-37.794;175.246;2023-08-06T05:12:17;8.38;;;1.73;;
27722;SDS011;15123;-37.794;175.246;2023-08-06T05:15:41;8.27;;;1.80;;
27722;SDS011;15123;-37.794;175.246;2023-08-06T05:19:06;6.07;;;1.48;;
27722;SDS011;15123;-37.794;175.246;2023-08-06T05:22:30;5.40;;;1.00;;
27722;SDS011;15123;-37.794;175.246;2023-08-06T05:25:54;7.07;;;1.90;;
27722;SDS011;15123;-37.794;175.246;2023-08-06T05:29:13;7.13;;;2.00;;
27722;SDS011;15123;-37.794;175.246;2023-08-06T05:32:38;5.63;;;1.10;;
27722;SDS011;15123;-37.794;175.246;2023-08-06T05:36:03;4.85;;;1.45;;
27722;SDS011;15123;-37.794;175.246;2023-08-06T05:39:21;7.30;;;1.60;;
27722;SDS011;15123;-37.794;175.246;2023-08-06T05:42:39;6.68;;;1.73;;
27722;SDS011;15123;-37.794;175.246;2023-08-06T05:46:04;10.55;;;2.42;;
27722;SDS011;15123;-37.794;175.246;2023-08-06T05:49:29;6.97;;;2.10;;
27722;SDS011;15123;-37.794;175.246;2023-08-06T05:52:54;5.90;;;1.92;;
27722;SDS011;15123;-37.794;175.246;2023-08-06T05:56:18;7.70;;;2.20;;
27722;SDS011;15123;-37.794;175.246;2023-08-06T05:59:43;9.48;;;2.05;;
27722;SDS011;15123;-37.794;175.246;2023-08-06T06:03:13;8.50;;;2.00;;
27722;SDS011;15123;-37.794;175.246;2023-08-06T06:06:37;7.75;;;1.90;;
27722;SDS011;15123;-37.794;175.246;2023-08-06T06:10:01;8.05;;;2.50;;
27722;SDS011;15123;-37.794;175.246;2023-08-06T06:13:25;15.32;;;3.53;;
27722;SDS011;15123;-37.794;175.246;2023-08-06T06:16:49;8.63;;;2.97;;
27722;SDS011;15123;-37.794;175.246;2023-08-06T06:20:14;8.63;;;2.80;;
27722;SDS011;15123;-37.794;175.246;2023-08-06T06:23:38;7.10;;;2.03;;
27722;SDS011;15123;-37.794;175.246;2023-08-06T06:27:03;7.30;;;1.77;;
27722;SDS011;15123;-37.794;175.246;2023-08-06T06:30:28;8.30;;;1.80;;
27722;SDS011;15123;-37.794;175.246;2023-08-06T06:33:53;7.93;;;2.08;;
27722;SDS011;15123;-37.794;175.246;2023-08-06T06:37:17;6.28;;;2.20;;
27722;SDS011;15123;-37.794;175.246;2023-08-06T06:40:43;7.80;;;1.88;;
27722;SDS011;15123;-37.794;175.246;2023-08-06T06:44:07;6.30;;;1.73;;
27722;SDS011;15123;-37.794;175.246;2023-08-06T06:47:32;7.05;;;1.83;;
27722;SDS011;15123;-37.794;175.246;2023-08-06T06:50:57;6.90;;;1.55;;
27722;SDS011;15123;-37.794;175.246;2023-08-06T06:54:21;7.03;;;1.50;;
27722;SDS011;15123;-37.794;175.246;2023-08-06T06:57:45;7.53;;;1.58;;
27722;SDS011;15123;-37.794;175.246;2023-08-06T07:01:10;6.90;;;1.40;;
27722;SDS011;15123;-37.794;175.246;2023-08-06T07:04:35;6.70;;;1.40;;
27722;SDS011;15123;-37.794;175.246;2023-08-06T07:07:59;7.32;;;1.73;;
27722;SDS011;15123;-37.794;175.246;2023-08-06T07:11:24;6.80;;;1.90;;
27722;SDS011;15123;-37.794;175.246;2023-08-06T07:14:48;7.22;;;1.58;;
27722;SDS011;15123;-37.794;175.246;2023-08-06T07:18:12;7.85;;;2.40;;
27722;SDS011;15123;-37.794;175.246;2023-08-06T07:21:36;9.82;;;2.67;;
27722;SDS011;15123;-37.794;175.246;2023-08-06T07:25:01;8.43;;;3.00;;
27722;SDS011;15123;-37.794;175.246;2023-08-06T07:28:26;8.75;;;2.70;;
27722;SDS011;15123;-37.794;175.246;2023-08-06T07:31:50;7.40;;;2.30;;
27722;SDS011;15123;-37.794;175.246;2023-08-06T07:35:14;8.52;;;3.50;;
27722;SDS011;15123;-37.794;175.246;2023-08-06T07:38:38;9.95;;;3.67;;
27722;SDS011;15123;-37.794;175.246;2023-08-06T07:42:02;9.77;;;3.28;;
27722;SDS011;15123;-37.794;175.246;2023-08-06T07:45:26;8.93;;;3.58;;
27722;SDS011;15123;-37.794;175.246;2023-08-06T07:48:51;11.00;;;4.18;;
27722;SDS011;15123;-37.794;175.246;2023-08-06T07:52:15;12.02;;;3.97;;
27722;SDS011;15123;-37.794;175.246;2023-08-06T07:55:39;10.15;;;3.80;;
27722;SDS011;15123;-37.794;175.246;2023-08-06T07:59:04;8.75;;;3.00;;
27722;SDS011;15123;-37.794;175.246;2023-08-06T08:02:28;9.98;;;2.78;;
27722;SDS011;15123;-37.794;175.246;2023-08-06T08:05:54;7.53;;;3.22;;
27722;SDS011;15123;-37.794;175.246;2023-08-06T08:09:19;12.23;;;4.65;;
27722;SDS011;15123;-37.794;175.246;2023-08-06T08:12:43;15.68;;;5.82;;
27722;SDS011;15123;-37.794;175.246;2023-08-06T08:16:07;12.30;;;3.92;;
27722;SDS011;15123;-37.794;175.246;2023-08-06T08:19:31;9.13;;;3.53;;
27722;SDS011;15123;-37.794;175.246;2023-08-06T08:22:49;10.50;;;3.70;;
27722;SDS011;15123;-37.794;175.246;2023-08-06T08:26:06;15.82;;;5.55;;
27722;SDS011;15123;-37.794;175.246;2023-08-06T08:29:31;12.05;;;2.67;;
27722;SDS011;15123;-37.794;175.246;2023-08-06T08:32:56;9.32;;;2.83;;
27722;SDS011;15123;-37.794;175.246;2023-08-06T08:36:20;12.27;;;4.90;;
27722;SDS011;15123;-37.794;175.246;2023-08-06T08:39:44;12.73;;;4.78;;
27722;SDS011;15123;-37.794;175.246;2023-08-06T08:43:09;8.95;;;3.20;;
27722;SDS011;15123;-37.794;175.246;2023-08-06T08:46:34;8.77;;;3.17;;
27722;SDS011;15123;-37.794;175.246;2023-08-06T08:49:58;13.10;;;5.28;;
27722;SDS011;15123;-37.794;175.246;2023-08-06T08:53:22;23.05;;;11.02;;
27722;SDS011;15123;-37.794;175.246;2023-08-06T08:56:46;15.93;;;7.28;;
27722;SDS011;15123;-37.794;175.246;2023-08-06T09:00:11;15.05;;;7.00;;
27722;SDS011;15123;-37.794;175.246;2023-08-06T09:03:35;16.10;;;5.43;;
27722;SDS011;15123;-37.794;175.246;2023-08-06T09:07:00;13.55;;;3.58;;
27722;SDS011;15123;-37.794;175.246;2023-08-06T09:10:25;11.15;;;4.10;;
27722;SDS011;15123;-37.794;175.246;2023-08-06T09:13:50;10.73;;;3.70;;
27722;SDS011;15123;-37.794;175.246;2023-08-06T09:17:08;19.27;;;7.03;;
27722;SDS011;15123;-37.794;175.246;2023-08-06T09:20:37;17.25;;;8.13;;
27722;SDS011;15123;-37.794;175.246;2023-08-06T09:24:07;18.25;;;9.18;;
27722;SDS011;15123;-37.794;175.246;2023-08-06T09:27:32;60.72;;;32.45;;
27722;SDS011;15123;-37.794;175.246;2023-08-06T09:30:59;33.10;;;15.23;;
27722;SDS011;15123;-37.794;175.246;2023-08-06T09:34:25;23.27;;;9.98;;
27722;SDS011;15123;-37.794;175.246;2023-08-06T09:37:50;28.40;;;12.20;;
27722;SDS011;15123;-37.794;175.246;2023-08-06T09:41:25;26.92;;;11.88;;
27722;SDS011;15123;-37.794;175.246;2023-08-06T09:44:50;20.60;;;9.95;;
27722;SDS011;15123;-37.794;175.246;2023-08-06T09:48:14;26.55;;;11.75;;
27722;SDS011;15123;-37.794;175.246;2023-08-06T09:51:39;30.83;;;12.60;;
27722;SDS011;15123;-37.794;175.246;2023-08-06T09:55:07;32.50;;;13.32;;
27722;SDS011;15123;-37.794;175.246;2023-08-06T09:58:32;17.58;;;6.70;;
27722;SDS011;15123;-37.794;175.246;2023-08-06T10:01:56;13.93;;;4.32;;
27722;SDS011;15123;-37.794;175.246;2023-08-06T10:05:20;32.15;;;13.93;;
27722;SDS011;15123;-37.794;175.246;2023-08-06T10:08:45;31.30;;;14.85;;
27722;SDS011;15123;-37.794;175.246;2023-08-06T10:12:09;27.40;;;12.80;;
27722;SDS011;15123;-37.794;175.246;2023-08-06T10:15:35;23.45;;;11.30;;
27722;SDS011;15123;-37.794;175.246;2023-08-06T10:19:01;27.55;;;12.05;;
27722;SDS011;15123;-37.794;175.246;2023-08-06T10:22:27;26.75;;;11.80;;
27722;SDS011;15123;-37.794;175.246;2023-08-06T10:25:53;28.80;;;13.75;;
27722;SDS011;15123;-37.794;175.246;2023-08-06T10:33:13;33.17;;;14.27;;
27722;SDS011;15123;-37.794;175.246;2023-08-06T10:36:39;33.67;;;14.55;;
27722;SDS011;15123;-37.794;175.246;2023-08-06T10:40:06;35.55;;;15.57;;
27722;SDS011;15123;-37.794;175.246;2023-08-06T10:43:33;33.38;;;13.20;;
27722;SDS011;15123;-37.794;175.246;2023-08-06T10:47:25;29.23;;;11.80;;
27722;SDS011;15123;-37.794;175.246;2023-08-06T10:50:53;28.90;;;11.35;;
27722;SDS011;15123;-37.794;175.246;2023-08-06T10:54:19;23.92;;;10.10;;
27722;SDS011;15123;-37.794;175.246;2023-08-06T10:57:44;24.50;;;10.40;;
27722;SDS011;15123;-37.794;175.246;2023-08-06T11:01:09;21.17;;;10.25;;
27722;SDS011;15123;-37.794;175.246;2023-08-06T11:04:34;34.40;;;15.82;;
27722;SDS011;15123;-37.794;175.246;2023-08-06T11:07:52;27.30;;;11.73;;
27722;SDS011;15123;-37.794;175.246;2023-08-06T11:11:16;32.80;;;14.52;;
27722;SDS011;15123;-37.794;175.246;2023-08-06T11:14:41;34.10;;;14.63;;
27722;SDS011;15123;-37.794;175.246;2023-08-06T11:18:05;27.38;;;12.20;;
27722;SDS011;15123;-37.794;175.246;2023-08-06T11:21:31;26.70;;;11.95;;
27722;SDS011;15123;-37.794;175.246;2023-08-06T11:24:56;28.23;;;12.52;;
27722;SDS011;15123;-37.794;175.246;2023-08-06T11:28:21;29.55;;;14.18;;
27722;SDS011;15123;-37.794;175.246;2023-08-06T11:31:45;26.95;;;12.77;;
27722;SDS011;15123;-37.794;175.246;2023-08-06T11:35:09;26.70;;;12.05;;
27722;SDS011;15123;-37.794;175.246;2023-08-06T11:38:35;24.20;;;11.55;;
27722;SDS011;15123;-37.794;175.246;2023-08-06T11:41:52;22.52;;;10.52;;
27722;SDS011;15123;-37.794;175.246;2023-08-06T11:45:21;21.67;;;10.18;;
27722;SDS011;15123;-37.794;175.246;2023-08-06T11:48:52;44.40;;;15.95;;
27722;SDS011;15123;-37.794;175.246;2023-08-06T11:52:25;22.80;;;10.45;;
27722;SDS011;15123;-37.794;175.246;2023-08-06T11:55:49;22.83;;;10.43;;
27722;SDS011;15123;-37.794;175.246;2023-08-06T11:59:13;23.30;;;10.27;;
27722;SDS011;15123;-37.794;175.246;2023-08-06T12:02:39;25.38;;;11.73;;
27722;SDS011;15123;-37.794;175.246;2023-08-06T12:06:05;21.45;;;9.98;;
27722;SDS011;15123;-37.794;175.246;2023-08-06T12:09:29;21.13;;;9.90;;
27722;SDS011;15123;-37.794;175.246;2023-08-06T12:12:57;19.15;;;7.55;;
27722;SDS011;15123;-37.794;175.246;2023-08-06T12:16:21;17.17;;;7.20;;
27722;SDS011;15123;-37.794;175.246;2023-08-06T12:19:45;14.35;;;6.93;;
27722;SDS011;15123;-37.794;175.246;2023-08-06T12:23:09;17.30;;;7.18;;
27722;SDS011;15123;-37.794;175.246;2023-08-06T12:26:34;18.10;;;7.35;;
27722;SDS011;15123;-37.794;175.246;2023-08-06T12:29:58;19.10;;;8.13;;
27722;SDS011;15123;-37.794;175.246;2023-08-06T12:33:22;19.10;;;6.93;;
27722;SDS011;15123;-37.794;175.246;2023-08-06T12:36:46;17.83;;;7.55;;
27722;SDS011;15123;-37.794;175.246;2023-08-06T12:40:10;18.08;;;7.28;;
27722;SDS011;15123;-37.794;175.246;2023-08-06T12:43:46;15.82;;;7.38;;
27722;SDS011;15123;-37.794;175.246;2023-08-06T12:47:10;16.38;;;7.00;;
27722;SDS011;15123;-37.794;175.246;2023-08-06T12:50:35;12.80;;;5.80;;
27722;SDS011;15123;-37.794;175.246;2023-08-06T12:53:59;14.07;;;6.07;;
27722;SDS011;15123;-37.794;175.246;2023-08-06T12:57:23;14.52;;;5.30;;
27722;SDS011;15123;-37.794;175.246;2023-08-06T13:01:05;14.73;;;5.50;;
27722;SDS011;15123;-37.794;175.246;2023-08-06T13:04:29;13.65;;;5.50;;
27722;SDS011;15123;-37.794;175.246;2023-08-06T13:07:54;46.33;;;23.35;;
27722;SDS011;15123;-37.794;175.246;2023-08-06T13:11:18;45.15;;;23.95;;
27722;SDS011;15123;-37.794;175.246;2023-08-06T13:14:44;44.40;;;23.80;;
27722;SDS011;15123;-37.794;175.246;2023-08-06T13:18:10;27.75;;;14.82;;
27722;SDS011;15123;-37.794;175.246;2023-08-06T13:25:12;16.50;;;7.63;;
27722;SDS011;15123;-37.794;175.246;2023-08-06T13:28:36;11.80;;;5.20;;
27722;SDS011;15123;-37.794;175.246;2023-08-06T13:32:00;11.68;;;4.68;;
27722;SDS011;15123;-37.794;175.246;2023-08-06T13:35:25;13.30;;;4.90;;
27722;SDS011;15123;-37.794;175.246;2023-08-06T13:38:50;11.63;;;5.72;;
27722;SDS011;15123;-37.794;175.246;2023-08-06T13:42:14;11.93;;;5.50;;
27722;SDS011;15123;-37.794;175.246;2023-08-06T13:45:39;11.90;;;5.10;;
27722;SDS011;15123;-37.794;175.246;2023-08-06T13:49:04;15.40;;;5.93;;
27722;SDS011;15123;-37.794;175.246;2023-08-06T13:52:29;14.15;;;5.35;;
27722;SDS011;15123;-37.794;175.246;2023-08-06T13:55:53;28.15;;;14.13;;
27722;SDS011;15123;-37.794;175.246;2023-08-06T13:59:18;21.77;;;11.50;;
27722;SDS011;15123;-37.794;175.246;2023-08-06T14:02:42;13.15;;;4.95;;
27722;SDS011;15123;-37.794;175.246;2023-08-06T14:06:06;14.80;;;5.20;;
27722;SDS011;15123;-37.794;175.246;2023-08-06T14:09:31;11.32;;;4.47;;
27722;SDS011;15123;-37.794;175.246;2023-08-06T14:12:56;10.57;;;4.20;;
27722;SDS011;15123;-37.794;175.246;2023-08-06T14:16:20;12.23;;;4.70;;
27722;SDS011;15123;-37.794;175.246;2023-08-06T14:19:45;12.20;;;4.15;;
27722;SDS011;15123;-37.794;175.246;2023-08-06T14:23:03;10.93;;;4.53;;
27722;SDS011;15123;-37.794;175.246;2023-08-06T14:26:21;11.05;;;4.47;;
27722;SDS011;15123;-37.794;175.246;2023-08-06T14:29:45;9.18;;;4.20;;
27722;SDS011;15123;-37.794;175.246;2023-08-06T14:33:09;10.40;;;4.88;;
27722;SDS011;15123;-37.794;175.246;2023-08-06T14:36:35;9.60;;;4.30;;
27722;SDS011;15123;-37.794;175.246;2023-08-06T14:40:00;9.02;;;4.07;;
27722;SDS011;15123;-37.794;175.246;2023-08-06T14:43:24;9.32;;;4.43;;
27722;SDS011;15123;-37.794;175.246;2023-08-06T14:46:48;11.27;;;4.25;;
27722;SDS011;15123;-37.794;175.246;2023-08-06T14:50:13;10.23;;;4.68;;
27722;SDS011;15123;-37.794;175.246;2023-08-06T14:53:38;12.55;;;4.63;;
27722;SDS011;15123;-37.794;175.246;2023-08-06T14:57:03;12.93;;;4.75;;
27722;SDS011;15123;-37.794;175.246;2023-08-06T15:00:28;12.25;;;4.80;;
27722;SDS011;15123;-37.794;175.246;2023-08-06T15:03:45;12.60;;;4.80;;
27722;SDS011;15123;-37.794;175.246;2023-08-06T15:07:09;11.13;;;5.50;;
27722;SDS011;15123;-37.794;175.246;2023-08-06T15:10:33;14.43;;;5.55;;
27722;SDS011;15123;-37.794;175.246;2023-08-06T15:13:58;10.90;;;5.18;;
27722;SDS011;15123;-37.794;175.246;2023-08-06T15:17:23;11.80;;;5.82;;
27722;SDS011;15123;-37.794;175.246;2023-08-06T15:20:48;14.32;;;6.25;;
27722;SDS011;15123;-37.794;175.246;2023-08-06T15:24:08;14.30;;;5.50;;
27722;SDS011;15123;-37.794;175.246;2023-08-06T15:27:25;11.55;;;5.90;;
27722;SDS011;15123;-37.794;175.246;2023-08-06T15:30:52;13.25;;;5.70;;
27722;SDS011;15123;-37.794;175.246;2023-08-06T15:34:16;12.85;;;5.85;;
27722;SDS011;15123;-37.794;175.246;2023-08-06T15:37:40;15.35;;;6.03;;
27722;SDS011;15123;-37.794;175.246;2023-08-06T15:41:04;13.15;;;5.57;;
27722;SDS011;15123;-37.794;175.246;2023-08-06T15:44:28;15.00;;;6.20;;
27722;SDS011;15123;-37.794;175.246;2023-08-06T15:47:53;16.48;;;6.40;;
27722;SDS011;15123;-37.794;175.246;2023-08-06T15:51:17;17.45;;;5.50;;
27722;SDS011;15123;-37.794;175.246;2023-08-06T15:54:41;13.55;;;6.10;;
27722;SDS011;15123;-37.794;175.246;2023-08-06T15:58:05;11.23;;;5.07;;
27722;SDS011;15123;-37.794;175.246;2023-08-06T16:01:29;11.60;;;4.80;;
27722;SDS011;15123;-37.794;175.246;2023-08-06T16:04:55;13.20;;;5.30;;
27722;SDS011;15123;-37.794;175.246;2023-08-06T16:08:19;12.85;;;6.05;;
27722;SDS011;15123;-37.794;175.246;2023-08-06T16:11:46;14.60;;;6.90;;
27722;SDS011;15123;-37.794;175.246;2023-08-06T16:15:11;13.57;;;7.97;;
27722;SDS011;15123;-37.794;175.246;2023-08-06T16:18:36;18.23;;;9.98;;
27722;SDS011;15123;-37.794;175.246;2023-08-06T16:22:00;17.02;;;10.23;;
27722;SDS011;15123;-37.794;175.246;2023-08-06T16:25:19;15.77;;;7.88;;
27722;SDS011;15123;-37.794;175.246;2023-08-06T16:28:36;14.85;;;9.07;;
27722;SDS011;15123;-37.794;175.246;2023-08-06T16:32:01;14.95;;;8.48;;
27722;SDS011;15123;-37.794;175.246;2023-08-06T16:35:29;19.30;;;9.07;;
27722;SDS011;15123;-37.794;175.246;2023-08-06T16:38:53;15.38;;;8.23;;
27722;SDS011;15123;-37.794;175.246;2023-08-06T16:42:18;18.52;;;7.65;;
27722;SDS011;15123;-37.794;175.246;2023-08-06T16:45:43;13.80;;;7.63;;
27722;SDS011;15123;-37.794;175.246;2023-08-06T16:49:08;19.60;;;7.40;;
27722;SDS011;15123;-37.794;175.246;2023-08-06T16:52:32;16.73;;;7.53;;
27722;SDS011;15123;-37.794;175.246;2023-08-06T16:55:57;16.60;;;8.30;;
27722;SDS011;15123;-37.794;175.246;2023-08-06T16:59:21;17.90;;;7.25;;
27722;SDS011;15123;-37.794;175.246;2023-08-06T17:02:46;22.67;;;7.38;;
27722;SDS011;15123;-37.794;175.246;2023-08-06T17:06:10;19.00;;;7.72;;
27722;SDS011;15123;-37.794;175.246;2023-08-06T17:09:35;18.60;;;7.18;;
27722;SDS011;15123;-37.794;175.246;2023-08-06T17:13:00;21.42;;;8.63;;
27722;SDS011;15123;-37.794;175.246;2023-08-06T17:16:28;15.63;;;7.38;;
27722;SDS011;15123;-37.794;175.246;2023-08-06T17:19:53;17.30;;;7.05;;
27722;SDS011;15123;-37.794;175.246;2023-08-06T17:23:17;15.25;;;7.35;;
27722;SDS011;15123;-37.794;175.246;2023-08-06T17:26:42;15.00;;;7.30;;
27722;SDS011;15123;-37.794;175.246;2023-08-06T17:30:12;16.92;;;7.38;;
27722;SDS011;15123;-37.794;175.246;2023-08-06T17:33:37;14.80;;;6.70;;
27722;SDS011;15123;-37.794;175.246;2023-08-06T17:37:02;16.17;;;7.30;;
27722;SDS011;15123;-37.794;175.246;2023-08-06T17:40:26;14.90;;;6.82;;
27722;SDS011;15123;-37.794;175.246;2023-08-06T17:43:51;14.00;;;7.32;;
27722;SDS011;15123;-37.794;175.246;2023-08-06T17:47:16;16.77;;;7.55;;
27722;SDS011;15123;-37.794;175.246;2023-08-06T17:50:45;29.70;;;9.38;;
27722;SDS011;15123;-37.794;175.246;2023-08-06T17:54:09;33.28;;;10.15;;
27722;SDS011;15123;-37.794;175.246;2023-08-06T17:57:33;20.15;;;8.38;;
27722;SDS011;15123;-37.794;175.246;2023-08-06T18:00:58;17.75;;;8.18;;
27722;SDS011;15123;-37.794;175.246;2023-08-06T18:04:23;16.05;;;7.60;;
27722;SDS011;15123;-37.794;175.246;2023-08-06T18:07:47;15.15;;;7.90;;
27722;SDS011;15123;-37.794;175.246;2023-08-06T18:11:11;19.45;;;7.80;;
27722;SDS011;15123;-37.794;175.246;2023-08-06T18:14:38;15.35;;;7.47;;
27722;SDS011;15123;-37.794;175.246;2023-08-06T18:18:05;15.00;;;7.47;;
27722;SDS011;15123;-37.794;175.246;2023-08-06T18:21:29;14.10;;;6.38;;
27722;SDS011;15123;-37.794;175.246;2023-08-06T18:24:53;13.50;;;6.20;;
27722;SDS011;15123;-37.794;175.246;2023-08-06T18:28:23;10.80;;;6.20;;
27722;SDS011;15123;-37.794;175.246;2023-08-06T18:31:48;11.55;;;6.40;;
27722;SDS011;15123;-37.794;175.246;2023-08-06T18:35:13;12.93;;;7.35;;
27722;SDS011;15123;-37.794;175.246;2023-08-06T18:38:38;12.60;;;7.40;;
27722;SDS011;15123;-37.794;175.246;2023-08-06T18:42:05;12.15;;;7.43;;
27722;SDS011;15123;-37.794;175.246;2023-08-06T18:45:30;12.40;;;6.88;;
27722;SDS011;15123;-37.794;175.246;2023-08-06T18:48:57;14.45;;;7.75;;
27722;SDS011;15123;-37.794;175.246;2023-08-06T18:52:22;13.25;;;7.22;;
27722;SDS011;15123;-37.794;175.246;2023-08-06T18:55:49;15.77;;;9.40;;
27722;SDS011;15123;-37.794;175.246;2023-08-06T18:59:09;20.33;;;10.13;;
27722;SDS011;15123;-37.794;175.246;2023-08-06T19:02:27;33.55;;;15.10;;
27722;SDS011;15123;-37.794;175.246;2023-08-06T19:05:52;26.20;;;13.57;;
27722;SDS011;15123;-37.794;175.246;2023-08-06T19:09:21;23.60;;;12.30;;
27722;SDS011;15123;-37.794;175.246;2023-08-06T19:12:45;18.70;;;11.27;;
27722;SDS011;15123;-37.794;175.246;2023-08-06T19:16:10;28.38;;;14.45;;
27722;SDS011;15123;-37.794;175.246;2023-08-06T19:19:34;27.05;;;14.30;;
27722;SDS011;15123;-37.794;175.246;2023-08-06T19:22:59;24.30;;;14.30;;
27722;SDS011;15123;-37.794;175.246;2023-08-06T19:26:23;21.83;;;12.25;;
27722;SDS011;15123;-37.794;175.246;2023-08-06T19:29:48;22.10;;;11.80;;
27722;SDS011;15123;-37.794;175.246;2023-08-06T19:33:12;22.77;;;12.63;;
27722;SDS011;15123;-37.794;175.246;2023-08-06T19:36:37;36.05;;;20.65;;
27722;SDS011;15123;-37.794;175.246;2023-08-06T19:40:01;25.77;;;14.75;;